createdAt,value
2019-03-27T00:01:18.547Z,1.67
2019-03-27T00:03:44.818Z,1.80
2019-03-27T00:06:11.001Z,2.17
2019-03-27T00:08:37.364Z,1.57
2019-03-27T00:11:03.753Z,2.53
2019-03-27T00:13:29.916Z,2.63
2019-03-27T00:15:56.187Z,1.63
2019-03-27T00:18:22.356Z,2.03
2019-03-27T00:20:48.555Z,2.00
2019-03-27T00:23:14.721Z,1.33
2019-03-27T00:25:40.912Z,2.20
2019-03-27T00:28:16.176Z,1.40
2019-03-27T00:31:00.488Z,2.07
2019-03-27T00:33:26.679Z,1.03
2019-03-27T00:35:58.993Z,2.00
2019-03-27T00:38:25.170Z,1.93
2019-03-27T00:41:00.485Z,1.60
2019-03-27T00:43:26.682Z,1.53
2019-03-27T00:46:08.014Z,2.07
2019-03-27T00:48:34.180Z,2.33
2019-03-27T00:51:00.372Z,1.80
2019-03-27T00:53:41.671Z,1.80
2019-03-27T00:56:08.762Z,2.40
2019-03-27T00:58:34.964Z,1.93
2019-03-27T01:01:06.301Z,1.93
2019-03-27T01:03:32.453Z,1.67
2019-03-27T01:05:58.644Z,2.03
2019-03-27T01:08:24.865Z,2.10
2019-03-27T01:10:51.323Z,1.83
2019-03-27T01:13:17.585Z,3.13
2019-03-27T01:15:43.757Z,1.87
2019-03-27T01:18:09.916Z,1.83
2019-03-27T01:20:36.119Z,1.63
2019-03-27T01:23:02.434Z,1.60
2019-03-27T01:25:28.652Z,1.43
2019-03-27T01:27:54.846Z,1.70
2019-03-27T01:30:21.119Z,2.17
2019-03-27T01:32:59.471Z,2.33
2019-03-27T01:35:25.673Z,2.13
2019-03-27T01:37:51.923Z,1.97
2019-03-27T01:40:18.104Z,1.50
2019-03-27T01:42:44.304Z,1.57
2019-03-27T01:45:13.606Z,3.00
2019-03-27T01:47:39.789Z,1.93
2019-03-27T01:50:06.657Z,1.53
2019-03-27T01:52:44.885Z,1.77
2019-03-27T01:55:13.760Z,1.63
2019-03-27T01:57:39.925Z,1.93
2019-03-27T02:00:07.074Z,1.73
2019-03-27T02:02:33.340Z,2.27
2019-03-27T02:04:59.532Z,1.90
2019-03-27T02:07:25.736Z,1.50
2019-03-27T02:09:51.909Z,1.80
2019-03-27T02:12:20.866Z,2.47
2019-03-27T02:14:49.557Z,1.80
2019-03-27T02:17:15.739Z,5.03
2019-03-27T02:19:41.902Z,3.67
2019-03-27T02:22:10.921Z,3.63
2019-03-27T02:24:37.093Z,5.03
2019-03-27T02:27:03.279Z,3.80
2019-03-27T02:29:29.509Z,3.63
2019-03-27T02:31:55.693Z,3.17
2019-03-27T02:34:24.505Z,2.50
2019-03-27T02:36:50.727Z,2.83
2019-03-27T02:39:16.907Z,3.10
2019-03-27T02:41:49.280Z,2.87
2019-03-27T02:44:15.440Z,2.20
2019-03-27T02:46:44.267Z,2.20
2019-03-27T02:49:10.427Z,2.07
2019-03-27T02:51:36.609Z,1.33
2019-03-27T02:54:02.857Z,1.60
2019-03-27T02:56:29.038Z,2.37
2019-03-27T02:58:55.273Z,1.83
2019-03-27T03:01:27.518Z,1.50
2019-03-27T03:03:56.229Z,1.67
2019-03-27T03:06:22.419Z,1.60
2019-03-27T03:08:48.593Z,1.83
2019-03-27T03:11:14.760Z,1.00
2019-03-27T03:13:41.061Z,1.20
2019-03-27T03:16:07.355Z,1.60
2019-03-27T03:18:33.533Z,1.60
2019-03-27T03:20:59.715Z,1.37
2019-03-27T03:23:26.147Z,1.23
2019-03-27T03:25:52.407Z,1.97
2019-03-27T03:28:18.574Z,1.63
2019-03-27T03:30:44.758Z,2.40
2019-03-27T03:33:10.935Z,1.40
2019-03-27T03:35:52.284Z,2.03
2019-03-27T03:38:18.536Z,1.50
2019-03-27T03:40:44.711Z,1.70
2019-03-27T03:43:11.107Z,2.33
2019-03-27T03:45:46.431Z,1.80
2019-03-27T03:48:15.179Z,1.70
2019-03-27T03:50:41.952Z,2.07
2019-03-27T03:56:08.191Z,1.83
2019-03-27T03:58:35.674Z,1.87
2019-03-27T04:01:05.114Z,1.80
2019-03-27T04:03:34.262Z,1.40
2019-03-27T04:06:03.127Z,1.30
2019-03-27T04:08:29.419Z,1.87
2019-03-27T04:10:55.592Z,1.53
2019-03-27T04:13:21.808Z,1.87
2019-03-27T04:15:47.992Z,1.50
2019-03-27T04:18:14.179Z,1.73
2019-03-27T04:20:40.399Z,2.07
2019-03-27T04:23:06.595Z,1.87
2019-03-27T04:26:06.329Z,1.57
2019-03-27T04:28:00.852Z,1.23
2019-03-27T04:30:27.111Z,1.63
2019-03-27T04:32:53.493Z,1.43
2019-03-27T04:35:19.680Z,1.70
2019-03-27T04:37:45.904Z,1.77
2019-03-27T04:40:12.231Z,1.73
2019-03-27T04:42:38.466Z,1.70
2019-03-27T04:45:05.062Z,1.63
2019-03-27T04:47:32.582Z,1.40
2019-03-27T04:50:03.692Z,1.60
2019-03-27T04:52:29.915Z,1.43
2019-03-27T04:54:56.108Z,1.53
2019-03-27T04:57:22.299Z,1.60
2019-03-27T04:59:50.992Z,1.63
2019-03-27T05:02:17.164Z,1.43
2019-03-27T05:04:43.713Z,1.73
2019-03-27T05:07:13.523Z,1.80
2019-03-27T05:09:38.177Z,1.57
2019-03-27T05:12:04.425Z,1.23
2019-03-27T05:14:30.774Z,1.73
2019-03-27T05:16:56.958Z,1.40
2019-03-27T05:19:23.170Z,2.17
2019-03-27T05:21:55.468Z,2.37
2019-03-27T05:24:24.187Z,1.83
2019-03-27T05:26:50.383Z,2.00
2019-03-27T05:29:16.719Z,1.23
2019-03-27T05:31:42.919Z,2.23
2019-03-27T05:34:09.126Z,1.30
2019-03-27T05:36:35.317Z,1.90
2019-03-27T05:39:01.502Z,1.80
2019-03-27T05:41:27.688Z,1.67
2019-03-27T05:43:53.856Z,2.00
2019-03-27T05:46:20.035Z,1.30
2019-03-27T05:48:46.197Z,1.53
2019-03-27T05:51:12.478Z,1.70
2019-03-27T05:53:38.757Z,1.90
2019-03-27T05:56:04.962Z,1.53
2019-03-27T05:58:31.171Z,1.20
2019-03-27T06:00:57.341Z,1.63
2019-03-27T06:03:23.531Z,1.80
2019-03-27T06:06:07.800Z,1.63
2019-03-27T06:08:34.040Z,2.47
2019-03-27T06:11:00.249Z,2.37
2019-03-27T06:13:29.521Z,1.87
2019-03-27T06:15:58.319Z,1.83
2019-03-27T06:18:24.632Z,1.97
2019-03-27T06:20:54.063Z,1.90
2019-03-27T06:23:20.438Z,2.10
2019-03-27T06:25:46.696Z,2.33
2019-03-27T06:28:12.977Z,1.97
2019-03-27T06:30:39.208Z,1.83
2019-03-27T06:33:05.393Z,2.10
2019-03-27T06:35:31.593Z,2.10
2019-03-27T06:37:57.831Z,2.00
2019-03-27T06:40:24.011Z,1.60
2019-03-27T06:42:50.363Z,2.10
2019-03-27T06:45:16.558Z,1.90
2019-03-27T06:47:42.824Z,1.80
2019-03-27T06:50:09.701Z,2.50
2019-03-27T06:52:38.550Z,2.30
2019-03-27T06:55:06.205Z,2.63
2019-03-27T06:57:47.647Z,2.50
2019-03-27T07:00:14.449Z,2.60
2019-03-27T07:02:43.404Z,2.10
2019-03-27T07:05:09.841Z,1.70
2019-03-27T07:07:36.128Z,2.30
2019-03-27T07:10:06.592Z,1.83
2019-03-27T07:12:41.925Z,1.63
2019-03-27T07:15:08.560Z,2.63
2019-03-27T07:17:34.800Z,2.20
2019-03-27T07:20:01.537Z,1.83
2019-03-27T07:22:27.760Z,1.70
2019-03-27T07:24:54.069Z,2.30
2019-03-27T07:27:20.414Z,2.30
2019-03-27T07:29:46.580Z,3.00
2019-03-27T07:32:12.824Z,2.57
2019-03-27T07:34:39.098Z,1.33
2019-03-27T07:37:05.310Z,2.20
2019-03-27T07:39:31.704Z,2.50
2019-03-27T07:41:58.075Z,2.30
2019-03-27T07:44:24.454Z,1.40
2019-03-27T07:47:09.545Z,2.40
2019-03-27T07:49:35.755Z,2.23
2019-03-27T07:52:01.978Z,1.80
2019-03-27T07:54:28.222Z,1.87
2019-03-27T07:56:54.449Z,2.17
2019-03-27T07:59:20.730Z,1.73
2019-03-27T08:01:46.914Z,2.13
2019-03-27T08:04:14.613Z,1.77
2019-03-27T08:06:40.934Z,2.43
2019-03-27T08:09:07.169Z,1.97
2019-03-27T08:11:33.558Z,2.30
2019-03-27T08:14:00.629Z,2.03
2019-03-27T08:16:26.891Z,2.30
2019-03-27T08:19:06.607Z,1.67
2019-03-27T08:21:21.208Z,2.17
2019-03-27T08:23:47.426Z,2.20
2019-03-27T08:26:13.602Z,2.30
2019-03-27T08:28:39.777Z,2.03
2019-03-27T08:31:05.996Z,2.93
2019-03-27T08:33:32.297Z,1.90
2019-03-27T08:36:16.835Z,2.00
2019-03-27T08:38:43.024Z,1.70
2019-03-27T08:41:09.485Z,2.10
2019-03-27T08:43:35.677Z,2.03
2019-03-27T08:46:02.000Z,1.93
2019-03-27T08:48:28.233Z,2.00
2019-03-27T08:50:54.397Z,1.87
2019-03-27T08:53:20.703Z,2.57
2019-03-27T08:55:49.672Z,2.63
2019-03-27T08:58:15.943Z,2.30
2019-03-27T09:00:45.957Z,2.07
2019-03-27T09:03:12.257Z,2.07
2019-03-27T09:05:38.460Z,2.00
2019-03-27T09:08:04.675Z,2.13
2019-03-27T09:10:30.845Z,2.13
2019-03-27T09:12:57.018Z,1.83
2019-03-27T09:15:23.176Z,2.10
2019-03-27T09:17:49.383Z,2.40
2019-03-27T09:20:16.173Z,2.20
2019-03-27T09:22:42.479Z,1.40
2019-03-27T09:25:08.977Z,2.00
2019-03-27T09:27:35.185Z,1.87
2019-03-27T09:30:03.722Z,1.80
2019-03-27T09:32:32.875Z,1.80
2019-03-27T09:34:59.136Z,2.47
2019-03-27T09:37:28.041Z,1.60
2019-03-27T09:39:54.312Z,1.90
2019-03-27T09:42:20.568Z,1.70
2019-03-27T09:44:46.822Z,2.00
2019-03-27T09:47:34.503Z,1.60
2019-03-27T09:50:17.817Z,1.50
2019-03-27T09:52:44.092Z,1.47
2019-03-27T09:55:10.447Z,1.40
2019-03-27T09:57:36.668Z,1.93
2019-03-27T10:00:06.983Z,1.75
2019-03-27T10:02:36.025Z,1.60
2019-03-27T10:05:04.622Z,1.05
2019-03-27T10:07:49.570Z,1.20
2019-03-27T10:10:34.368Z,1.37
2019-03-27T10:13:00.545Z,1.45
2019-03-27T10:15:26.808Z,1.07
2019-03-27T10:17:52.973Z,1.20
2019-03-27T10:20:19.206Z,1.22
2019-03-27T10:22:45.396Z,1.02
2019-03-27T10:25:11.836Z,1.10
2019-03-27T10:27:38.174Z,0.95
2019-03-27T10:30:07.903Z,1.37
2019-03-27T10:32:34.181Z,1.32
2019-03-27T10:35:00.486Z,1.15
2019-03-27T10:37:27.056Z,1.30
2019-03-27T10:39:53.280Z,1.00
2019-03-27T10:42:19.671Z,1.50
2019-03-27T10:44:48.709Z,0.95
2019-03-27T10:47:14.884Z,0.70
2019-03-27T10:49:41.062Z,0.78
2019-03-27T10:52:07.381Z,1.60
2019-03-27T10:54:45.983Z,1.50
2019-03-27T10:57:27.179Z,0.93
2019-03-27T10:59:55.931Z,0.75
2019-03-27T11:02:22.089Z,1.50
2019-03-27T11:04:48.261Z,1.10
2019-03-27T11:07:14.436Z,0.75
2019-03-27T11:09:41.016Z,0.93
2019-03-27T11:12:25.794Z,0.90
2019-03-27T11:14:52.084Z,0.88
2019-03-27T11:17:33.517Z,0.90
2019-03-27T11:19:59.716Z,1.15
2019-03-27T11:22:25.920Z,0.80
2019-03-27T11:24:52.092Z,1.15
2019-03-27T11:27:18.330Z,0.75
2019-03-27T11:29:44.525Z,1.00
2019-03-27T11:32:10.788Z,0.82
2019-03-27T11:34:37.000Z,1.52
2019-03-27T11:37:03.312Z,1.10
2019-03-27T11:39:29.712Z,1.42
2019-03-27T11:42:00.769Z,1.22
2019-03-27T11:44:26.965Z,0.90
2019-03-27T11:46:53.273Z,1.20
2019-03-27T11:49:19.602Z,1.27
2019-03-27T11:51:48.768Z,1.12
2019-03-27T11:54:33.766Z,0.93
2019-03-27T11:56:59.950Z,1.37
2019-03-27T11:59:26.115Z,1.50
2019-03-27T12:01:52.321Z,1.10
2019-03-27T12:04:18.496Z,1.35
2019-03-27T12:06:44.681Z,1.05
2019-03-27T12:09:10.905Z,1.40
2019-03-27T12:11:37.274Z,1.27
2019-03-27T12:14:03.800Z,1.52
2019-03-27T12:16:30.059Z,1.15
2019-03-27T12:18:56.233Z,0.93
2019-03-27T12:21:25.181Z,1.47
2019-03-27T12:24:10.204Z,1.45
2019-03-27T12:26:36.381Z,0.93
2019-03-27T12:29:02.711Z,1.10
2019-03-27T12:31:31.803Z,1.00
2019-03-27T12:33:58.018Z,1.27
2019-03-27T12:36:24.183Z,1.10
2019-03-27T12:38:50.430Z,1.42
2019-03-27T12:41:16.593Z,1.90
2019-03-27T12:43:42.802Z,1.40
2019-03-27T12:46:11.858Z,1.12
2019-03-27T12:48:38.041Z,1.30
2019-03-27T12:51:12.641Z,0.98
2019-03-27T12:53:32.440Z,1.35
2019-03-27T12:55:58.604Z,1.40
2019-03-27T12:58:24.804Z,1.25
2019-03-27T13:01:09.691Z,1.00
2019-03-27T13:03:35.875Z,0.98
2019-03-27T13:06:02.253Z,1.20
2019-03-27T13:08:40.792Z,1.05
2019-03-27T13:11:07.018Z,1.10
2019-03-27T13:13:33.437Z,1.30
2019-03-27T13:15:59.638Z,1.20
2019-03-27T13:18:25.813Z,1.50
2019-03-27T13:20:51.990Z,1.30
2019-03-27T13:23:18.161Z,1.17
2019-03-27T13:25:44.336Z,1.07
2019-03-27T13:28:10.533Z,0.88
2019-03-27T13:30:36.750Z,1.20
2019-03-27T13:33:03.216Z,1.30
2019-03-27T13:35:32.024Z,0.80
2019-03-27T13:37:58.276Z,1.00
2019-03-27T13:40:33.766Z,1.20
2019-03-27T13:42:59.951Z,1.02
2019-03-27T13:45:26.200Z,1.47
2019-03-27T13:47:52.349Z,1.10
2019-03-27T13:50:19.643Z,1.15
2019-03-27T13:52:46.355Z,0.93
2019-03-27T13:55:15.553Z,1.20
2019-03-27T13:57:42.604Z,1.05
2019-03-27T14:00:11.379Z,1.05
2019-03-27T14:02:43.645Z,1.13
2019-03-27T14:05:10.206Z,1.35
2019-03-27T14:07:36.364Z,1.17
2019-03-27T14:10:04.878Z,1.42
2019-03-27T14:12:31.140Z,1.37
2019-03-27T14:14:57.362Z,1.30
2019-03-27T14:17:23.559Z,1.10
2019-03-27T14:20:09.246Z,1.05
2019-03-27T14:22:35.439Z,1.63
2019-03-27T14:25:03.212Z,1.47
2019-03-27T14:27:29.426Z,1.90
2019-03-27T14:30:17.920Z,1.80
2019-03-27T14:32:44.093Z,1.60
2019-03-27T14:35:10.784Z,1.67
2019-03-27T14:37:37.002Z,1.40
2019-03-27T14:40:06.762Z,1.50
2019-03-27T14:42:35.545Z,1.70
2019-03-27T14:45:03.956Z,1.37
2019-03-27T14:47:42.222Z,2.27
2019-03-27T14:50:09.088Z,1.90
2019-03-27T14:52:37.904Z,1.60
2019-03-27T14:55:06.069Z,1.70
2019-03-27T14:57:32.268Z,1.87
2019-03-27T14:59:58.467Z,2.00
2019-03-27T15:02:27.785Z,2.00
2019-03-27T15:04:56.755Z,1.60
2019-03-27T15:07:22.990Z,2.10
2019-03-27T15:09:49.385Z,1.73
2019-03-27T15:12:34.995Z,1.77
2019-03-27T15:15:01.437Z,1.70
2019-03-27T15:17:27.889Z,1.77
2019-03-27T15:19:54.067Z,1.60
2019-03-27T15:22:22.651Z,1.30
2019-03-27T15:24:48.304Z,1.87
2019-03-27T15:27:33.419Z,1.90
2019-03-27T15:29:59.613Z,2.00
2019-03-27T15:32:25.837Z,2.33
2019-03-27T15:34:52.043Z,1.93
2019-03-27T15:37:18.240Z,2.10
2019-03-27T15:39:47.167Z,1.83
2019-03-27T15:42:13.419Z,1.80
2019-03-27T15:44:39.697Z,1.80
2019-03-27T15:47:08.796Z,1.60
2019-03-27T15:49:37.553Z,1.90
2019-03-27T15:52:03.790Z,1.90
2019-03-27T15:54:48.194Z,1.47
2019-03-27T15:57:14.581Z,2.00
2019-03-27T15:59:40.821Z,2.00
2019-03-27T16:02:07.181Z,1.80
2019-03-27T16:04:33.351Z,2.27
2019-03-27T16:06:59.547Z,2.40
2019-03-27T16:09:25.828Z,2.20
2019-03-27T16:11:52.024Z,1.87
2019-03-27T16:14:18.235Z,1.70
2019-03-27T16:17:13.257Z,2.33
2019-03-27T16:19:31.357Z,2.27
2019-03-27T16:21:57.540Z,1.77
2019-03-27T16:24:23.819Z,2.03
2019-03-27T16:27:03.877Z,2.30
2019-03-27T16:29:18.085Z,1.93
2019-03-27T16:31:44.350Z,2.43
2019-03-27T16:34:13.831Z,2.50
2019-03-27T16:36:39.992Z,1.70
2019-03-27T16:39:06.172Z,1.77
2019-03-27T16:41:32.665Z,2.00
2019-03-27T16:43:58.930Z,2.13
2019-03-27T16:46:25.156Z,2.03
2019-03-27T16:49:07.068Z,1.30
2019-03-27T16:51:33.303Z,1.63
2019-03-27T16:53:59.496Z,1.57
2019-03-27T16:56:25.692Z,1.70
2019-03-27T16:58:51.857Z,1.83
2019-03-27T17:01:18.157Z,1.93
2019-03-27T17:03:44.526Z,1.87
2019-03-27T17:06:29.602Z,1.80
2019-03-27T17:08:55.898Z,1.77
2019-03-27T17:11:31.928Z,1.77
2019-03-27T17:14:01.107Z,1.90
2019-03-27T17:16:30.365Z,2.23
2019-03-27T17:18:56.582Z,2.47
2019-03-27T17:21:22.789Z,2.03
2019-03-27T17:23:48.993Z,2.30
2019-03-27T17:26:15.399Z,1.93
2019-03-27T17:28:44.345Z,2.20
2019-03-27T17:31:10.633Z,1.77
2019-03-27T17:33:55.441Z,2.00
2019-03-27T17:36:21.646Z,2.00
2019-03-27T17:38:47.834Z,2.03
2019-03-27T17:41:14.175Z,1.47
2019-03-27T17:43:40.690Z,2.40
2019-03-27T17:46:22.522Z,2.50
2019-03-27T17:48:48.748Z,2.30
2019-03-27T17:51:15.023Z,2.43
2019-03-27T17:53:41.242Z,1.90
2019-03-27T17:56:26.528Z,2.13
2019-03-27T17:59:11.186Z,1.93
2019-03-27T18:01:37.479Z,2.00
2019-03-27T18:04:03.747Z,1.77
2019-03-27T18:06:30.040Z,1.70
2019-03-27T18:08:56.349Z,1.67
2019-03-27T18:11:25.241Z,2.17
2019-03-27T18:13:51.489Z,1.87
2019-03-27T18:16:17.707Z,1.73
2019-03-27T18:18:44.052Z,1.60
2019-03-27T18:21:10.350Z,1.60
2019-03-27T18:23:55.906Z,1.50
2019-03-27T18:26:40.716Z,1.80
2019-03-27T18:29:06.898Z,1.57
2019-03-27T18:31:33.056Z,2.37
2019-03-27T18:34:02.108Z,1.53
2019-03-27T18:36:37.761Z,2.43
2019-03-27T18:39:06.621Z,1.43
2019-03-27T18:41:51.322Z,1.80
2019-03-27T18:44:17.506Z,1.53
2019-03-27T18:46:43.712Z,1.73
2019-03-27T18:49:10.565Z,1.93
2019-03-27T18:51:37.012Z,1.60
2019-03-27T18:54:03.756Z,1.63
2019-03-27T18:56:42.093Z,1.70
2019-03-27T18:59:10.842Z,1.63
2019-03-27T19:01:37.129Z,1.50
2019-03-27T19:04:06.222Z,0.97
2019-03-27T19:06:32.399Z,1.43
2019-03-27T19:08:58.623Z,1.70
2019-03-27T19:11:27.670Z,2.07
2019-03-27T19:13:57.087Z,1.80
2019-03-27T19:16:25.887Z,1.80
2019-03-27T19:18:52.120Z,1.67
2019-03-27T19:21:18.521Z,1.70
2019-03-27T19:23:47.653Z,1.57
2019-03-27T19:26:13.846Z,1.83
2019-03-27T19:28:40.122Z,2.10
2019-03-27T19:31:09.074Z,1.40
2019-03-27T19:33:35.331Z,2.03
2019-03-27T19:36:01.557Z,1.70
2019-03-27T19:38:37.170Z,1.87
2019-03-27T19:41:03.510Z,1.77
2019-03-27T19:43:29.872Z,1.70
2019-03-27T19:45:57.604Z,1.77
2019-03-27T19:48:23.992Z,1.60
2019-03-27T19:50:50.668Z,1.47
2019-03-27T19:53:19.794Z,1.83
2019-03-27T19:55:48.783Z,1.40
2019-03-27T19:58:15.123Z,1.73
2019-03-27T20:00:59.886Z,1.60
2019-03-27T20:03:26.193Z,1.70
2019-03-27T20:06:10.929Z,1.50
2019-03-27T20:08:37.340Z,1.63
2019-03-27T20:11:03.619Z,1.73
2019-03-27T20:13:29.863Z,1.27
2019-03-27T20:15:56.088Z,2.03
2019-03-27T20:18:22.428Z,1.80
2019-03-27T20:20:51.389Z,1.87
2019-03-27T20:23:17.713Z,1.57
2019-03-27T20:25:44.268Z,1.93
2019-03-27T20:28:22.687Z,2.20
2019-03-27T20:30:48.991Z,1.67
2019-03-27T20:33:15.236Z,2.77
2019-03-27T20:35:41.522Z,2.00
2019-03-27T20:38:07.719Z,2.43
2019-03-27T20:40:33.996Z,2.50
2019-03-27T20:43:00.233Z,1.77
2019-03-27T20:45:29.241Z,2.13
2019-03-27T20:47:55.632Z,2.07
2019-03-27T20:50:27.021Z,2.00
2019-03-27T20:52:52.645Z,2.13
2019-03-27T20:55:29.595Z,1.60
2019-03-27T20:58:07.024Z,1.97
2019-03-27T21:00:36.087Z,2.03
2019-03-27T21:03:02.346Z,1.67
2019-03-27T21:05:31.334Z,1.60
2019-03-27T21:07:57.526Z,1.77
2019-03-27T21:10:23.826Z,1.50
2019-03-27T21:12:50.100Z,1.63
2019-03-27T21:15:16.282Z,2.07
2019-03-27T21:17:42.625Z,1.70
2019-03-27T21:20:09.654Z,1.97
2019-03-27T21:22:35.934Z,2.20
2019-03-27T21:25:09.096Z,1.93
2019-03-27T21:27:32.254Z,1.80
2019-03-27T21:29:59.546Z,1.77
2019-03-27T21:32:28.288Z,2.00
2019-03-27T21:34:54.455Z,1.60
2019-03-27T21:37:20.635Z,1.83
2019-03-27T21:39:46.959Z,1.67
2019-03-27T21:42:13.238Z,1.87
2019-03-27T21:44:39.494Z,2.23
2019-03-27T21:47:05.762Z,2.33
2019-03-27T21:49:32.152Z,2.27
2019-03-27T21:51:58.436Z,1.90
2019-03-27T21:54:24.715Z,2.27
2019-03-27T21:56:53.839Z,2.27
2019-03-27T21:59:20.133Z,2.20
2019-03-27T22:01:49.270Z,2.10
2019-03-27T22:04:15.536Z,2.23
2019-03-27T22:06:41.704Z,2.13
2019-03-27T22:09:07.942Z,2.47
2019-03-27T22:11:34.188Z,2.53
2019-03-27T22:14:00.402Z,2.20
2019-03-27T22:16:29.145Z,2.43
2019-03-27T22:18:55.321Z,1.53
2019-03-27T22:21:21.514Z,2.60
2019-03-27T22:23:47.683Z,2.33
2019-03-27T22:26:13.867Z,2.73
2019-03-27T22:28:40.131Z,3.13
2019-03-27T22:31:06.381Z,2.53
2019-03-27T22:33:32.595Z,2.73
2019-03-27T22:35:58.760Z,2.40
2019-03-27T22:38:24.975Z,2.47
2019-03-27T22:40:51.162Z,2.30
2019-03-27T22:43:17.433Z,1.70
2019-03-27T22:45:43.618Z,2.70
2019-03-27T22:48:09.803Z,2.37
2019-03-27T22:50:35.997Z,2.33
2019-03-27T22:53:02.180Z,2.93
2019-03-27T22:55:30.909Z,2.57
2019-03-27T22:57:57.124Z,3.13
2019-03-27T23:00:41.759Z,2.87
2019-03-27T23:03:17.640Z,2.77
2019-03-27T23:05:36.029Z,2.73
2019-03-27T23:08:02.332Z,2.53
2019-03-27T23:10:28.565Z,2.47
2019-03-27T23:12:54.757Z,3.20
2019-03-27T23:15:21.043Z,2.10
2019-03-27T23:17:47.192Z,2.50
2019-03-27T23:20:13.814Z,3.00
2019-03-27T23:22:40.078Z,2.20
2019-03-27T23:25:06.786Z,2.57
2019-03-27T23:27:32.981Z,2.77
2019-03-27T23:30:11.611Z,2.27
2019-03-27T23:32:37.772Z,3.03
2019-03-27T23:35:07.523Z,2.60
2019-03-27T23:37:33.676Z,2.33
2019-03-27T23:40:04.668Z,2.77
2019-03-27T23:42:30.851Z,2.90
2019-03-27T23:44:57.021Z,2.77
2019-03-27T23:47:23.214Z,2.33
2019-03-27T23:49:49.376Z,3.13
2019-03-27T23:52:15.634Z,2.43
2019-03-27T23:54:41.903Z,3.67
2019-03-27T23:57:08.145Z,2.70
2019-03-27T23:59:36.994Z,2.97
